sensor_id;sensor_type;location;lat;lon;timestamp;P1;durP1;ratioP1;P2;durP2;ratioP2
1949;SDS011;975;48.760;9.152;2022-11-20T00:02:08;6.38;;;3.40;;
1949;SDS011;975;48.760;9.152;2022-11-20T00:04:56;6.55;;;2.70;;
1949;SDS011;975;48.760;9.152;2022-11-20T00:07:44;8.10;;;3.10;;
1949;SDS011;975;48.760;9.152;2022-11-20T00:10:35;6.72;;;3.03;;
1949;SDS011;975;48.760;9.152;2022-11-20T00:13:23;6.78;;;3.13;;
1949;SDS011;975;48.760;9.152;2022-11-20T00:16:11;7.75;;;3.55;;
1949;SDS011;975;48.760;9.152;2022-11-20T00:18:59;7.05;;;3.58;;
1949;SDS011;975;48.760;9.152;2022-11-20T00:21:47;7.05;;;3.60;;
1949;SDS011;975;48.760;9.152;2022-11-20T00:24:37;5.53;;;3.65;;
1949;SDS011;975;48.760;9.152;2022-11-20T00:27:26;5.22;;;2.83;;
1949;SDS011;975;48.760;9.152;2022-11-20T00:30:14;7.00;;;3.08;;
1949;SDS011;975;48.760;9.152;2022-11-20T00:33:02;7.03;;;3.47;;
1949;SDS011;975;48.760;9.152;2022-11-20T00:35:50;8.48;;;3.35;;
1949;SDS011;975;48.760;9.152;2022-11-20T00:38:37;6.95;;;3.10;;
1949;SDS011;975;48.760;9.152;2022-11-20T00:41:26;6.97;;;3.00;;
1949;SDS011;975;48.760;9.152;2022-11-20T00:44:16;6.50;;;3.03;;
1949;SDS011;975;48.760;9.152;2022-11-20T00:47:06;4.10;;;2.30;;
1949;SDS011;975;48.760;9.152;2022-11-20T00:49:55;9.32;;;2.90;;
1949;SDS011;975;48.760;9.152;2022-11-20T00:52:45;7.85;;;2.60;;
1949;SDS011;975;48.760;9.152;2022-11-20T00:55:32;5.30;;;2.65;;
1949;SDS011;975;48.760;9.152;2022-11-20T00:58:21;6.57;;;2.50;;
1949;SDS011;975;48.760;9.152;2022-11-20T01:01:11;6.38;;;3.25;;
1949;SDS011;975;48.760;9.152;2022-11-20T01:03:59;4.03;;;2.65;;
1949;SDS011;975;48.760;9.152;2022-11-20T01:06:47;7.38;;;2.50;;
1949;SDS011;975;48.760;9.152;2022-11-20T01:09:35;5.07;;;2.80;;
1949;SDS011;975;48.760;9.152;2022-11-20T01:12:23;4.97;;;2.40;;
1949;SDS011;975;48.760;9.152;2022-11-20T01:15:11;4.53;;;2.42;;
1949;SDS011;975;48.760;9.152;2022-11-20T01:18:00;5.40;;;2.25;;
1949;SDS011;975;48.760;9.152;2022-11-20T01:20:48;5.82;;;2.40;;
1949;SDS011;975;48.760;9.152;2022-11-20T01:23:37;3.17;;;2.03;;
1949;SDS011;975;48.760;9.152;2022-11-20T01:26:27;5.90;;;2.30;;
1949;SDS011;975;48.760;9.152;2022-11-20T01:29:16;5.32;;;2.10;;
1949;SDS011;975;48.760;9.152;2022-11-20T01:32:04;6.45;;;2.60;;
1949;SDS011;975;48.760;9.152;2022-11-20T01:34:53;4.82;;;2.63;;
1949;SDS011;975;48.760;9.152;2022-11-20T01:37:41;4.03;;;2.13;;
1949;SDS011;975;48.760;9.152;2022-11-20T01:40:29;4.95;;;2.05;;
1949;SDS011;975;48.760;9.152;2022-11-20T01:43:17;5.75;;;3.05;;
1949;SDS011;975;48.760;9.152;2022-11-20T01:46:12;7.95;;;2.55;;
1949;SDS011;975;48.760;9.152;2022-11-20T01:49:02;3.47;;;1.95;;
1949;SDS011;975;48.760;9.152;2022-11-20T01:51:53;3.90;;;1.90;;
1949;SDS011;975;48.760;9.152;2022-11-20T01:54:43;3.25;;;2.00;;
1949;SDS011;975;48.760;9.152;2022-11-20T01:57:34;8.50;;;2.42;;
1949;SDS011;975;48.760;9.152;2022-11-20T02:00:22;4.22;;;2.35;;
1949;SDS011;975;48.760;9.152;2022-11-20T02:03:11;3.92;;;1.77;;
1949;SDS011;975;48.760;9.152;2022-11-20T02:06:02;4.60;;;2.20;;
1949;SDS011;975;48.760;9.152;2022-11-20T02:08:52;2.97;;;1.70;;
1949;SDS011;975;48.760;9.152;2022-11-20T02:14:29;3.63;;;1.85;;
1949;SDS011;975;48.760;9.152;2022-11-20T02:17:16;5.20;;;2.35;;
1949;SDS011;975;48.760;9.152;2022-11-20T02:20:04;4.15;;;2.05;;
1949;SDS011;975;48.760;9.152;2022-11-20T02:22:54;4.30;;;1.95;;
1949;SDS011;975;48.760;9.152;2022-11-20T02:25:44;5.18;;;1.90;;
1949;SDS011;975;48.760;9.152;2022-11-20T02:28:33;2.33;;;1.50;;
1949;SDS011;975;48.760;9.152;2022-11-20T02:31:21;4.97;;;2.58;;
1949;SDS011;975;48.760;9.152;2022-11-20T02:34:10;3.83;;;1.80;;
1949;SDS011;975;48.760;9.152;2022-11-20T02:36:58;2.85;;;1.80;;
1949;SDS011;975;48.760;9.152;2022-11-20T02:39:47;3.22;;;2.05;;
1949;SDS011;975;48.760;9.152;2022-11-20T02:42:37;3.33;;;2.10;;
1949;SDS011;975;48.760;9.152;2022-11-20T02:45:25;2.95;;;2.03;;
1949;SDS011;975;48.760;9.152;2022-11-20T02:48:13;3.50;;;1.80;;
1949;SDS011;975;48.760;9.152;2022-11-20T02:51:01;5.18;;;1.88;;
1949;SDS011;975;48.760;9.152;2022-11-20T02:53:49;4.63;;;2.35;;
1949;SDS011;975;48.760;9.152;2022-11-20T02:56:37;4.57;;;2.05;;
1949;SDS011;975;48.760;9.152;2022-11-20T02:59:26;3.85;;;2.08;;
1949;SDS011;975;48.760;9.152;2022-11-20T03:02:14;3.85;;;1.83;;
1949;SDS011;975;48.760;9.152;2022-11-20T03:05:02;3.88;;;2.00;;
1949;SDS011;975;48.760;9.152;2022-11-20T03:07:50;4.47;;;2.20;;
1949;SDS011;975;48.760;9.152;2022-11-20T03:10:41;4.03;;;1.90;;
1949;SDS011;975;48.760;9.152;2022-11-20T03:13:36;3.53;;;2.15;;
1949;SDS011;975;48.760;9.152;2022-11-20T03:16:33;4.15;;;1.73;;
1949;SDS011;975;48.760;9.152;2022-11-20T03:19:31;5.50;;;2.13;;
1949;SDS011;975;48.760;9.152;2022-11-20T03:22:26;3.13;;;1.88;;
1949;SDS011;975;48.760;9.152;2022-11-20T03:25:20;4.82;;;2.25;;
1949;SDS011;975;48.760;9.152;2022-11-20T03:28:11;2.55;;;1.52;;
1949;SDS011;975;48.760;9.152;2022-11-20T03:31:06;3.88;;;1.70;;
1949;SDS011;975;48.760;9.152;2022-11-20T03:34:03;4.72;;;2.28;;
1949;SDS011;975;48.760;9.152;2022-11-20T03:36:59;3.42;;;2.20;;
1949;SDS011;975;48.760;9.152;2022-11-20T03:39:56;4.03;;;2.10;;
1949;SDS011;975;48.760;9.152;2022-11-20T03:42:45;3.83;;;2.05;;
1949;SDS011;975;48.760;9.152;2022-11-20T03:45:36;3.90;;;2.40;;
1949;SDS011;975;48.760;9.152;2022-11-20T03:48:38;4.95;;;2.25;;
1949;SDS011;975;48.760;9.152;2022-11-20T03:51:30;3.67;;;2.03;;
1949;SDS011;975;48.760;9.152;2022-11-20T03:54:24;4.50;;;2.55;;
1949;SDS011;975;48.760;9.152;2022-11-20T03:57:27;4.47;;;2.05;;
1949;SDS011;975;48.760;9.152;2022-11-20T04:00:30;4.63;;;2.22;;
1949;SDS011;975;48.760;9.152;2022-11-20T04:03:22;3.22;;;1.90;;
1949;SDS011;975;48.760;9.152;2022-11-20T04:06:37;6.85;;;3.00;;
1949;SDS011;975;48.760;9.152;2022-11-20T04:09:37;6.82;;;3.00;;
1949;SDS011;975;48.760;9.152;2022-11-20T04:13:03;4.90;;;2.78;;
1949;SDS011;975;48.760;9.152;2022-11-20T04:15:56;4.60;;;2.45;;
1949;SDS011;975;48.760;9.152;2022-11-20T04:22:06;4.05;;;2.33;;
1949;SDS011;975;48.760;9.152;2022-11-20T04:25:00;4.85;;;2.70;;
1949;SDS011;975;48.760;9.152;2022-11-20T04:30:59;7.63;;;2.85;;
1949;SDS011;975;48.760;9.152;2022-11-20T04:34:07;3.35;;;2.25;;
1949;SDS011;975;48.760;9.152;2022-11-20T04:37:10;3.97;;;2.38;;
1949;SDS011;975;48.760;9.152;2022-11-20T04:40:09;5.90;;;2.83;;
1949;SDS011;975;48.760;9.152;2022-11-20T04:43:11;6.03;;;3.00;;
1949;SDS011;975;48.760;9.152;2022-11-20T04:46:06;6.63;;;2.65;;
1949;SDS011;975;48.760;9.152;2022-11-20T04:48:56;4.50;;;2.50;;
1949;SDS011;975;48.760;9.152;2022-11-20T04:51:49;3.75;;;2.53;;
1949;SDS011;975;48.760;9.152;2022-11-20T04:54:49;4.20;;;2.42;;
1949;SDS011;975;48.760;9.152;2022-11-20T04:57:43;2.90;;;2.03;;
1949;SDS011;975;48.760;9.152;2022-11-20T05:00:41;4.88;;;2.40;;
1949;SDS011;975;48.760;9.152;2022-11-20T05:03:40;6.38;;;2.38;;
1949;SDS011;975;48.760;9.152;2022-11-20T05:06:37;6.15;;;2.58;;
1949;SDS011;975;48.760;9.152;2022-11-20T05:09:30;7.45;;;2.55;;
1949;SDS011;975;48.760;9.152;2022-11-20T05:12:35;5.93;;;2.55;;
1949;SDS011;975;48.760;9.152;2022-11-20T05:15:28;5.13;;;2.65;;
1949;SDS011;975;48.760;9.152;2022-11-20T05:18:24;4.25;;;2.40;;
1949;SDS011;975;48.760;9.152;2022-11-20T05:21:29;4.47;;;2.45;;
1949;SDS011;975;48.760;9.152;2022-11-20T05:24:35;5.28;;;2.40;;
1949;SDS011;975;48.760;9.152;2022-11-20T05:27:25;6.05;;;2.28;;
1949;SDS011;975;48.760;9.152;2022-11-20T05:30:18;5.93;;;2.60;;
1949;SDS011;975;48.760;9.152;2022-11-20T05:36:07;5.32;;;2.10;;
1949;SDS011;975;48.760;9.152;2022-11-20T05:39:10;4.63;;;2.40;;
1949;SDS011;975;48.760;9.152;2022-11-20T05:42:03;7.25;;;2.20;;
1949;SDS011;975;48.760;9.152;2022-11-20T05:45:10;4.60;;;2.28;;
1949;SDS011;975;48.760;9.152;2022-11-20T05:48:15;5.50;;;2.35;;
1949;SDS011;975;48.760;9.152;2022-11-20T05:51:27;6.75;;;3.25;;
1949;SDS011;975;48.760;9.152;2022-11-20T05:54:32;6.28;;;2.25;;
1949;SDS011;975;48.760;9.152;2022-11-20T05:57:40;5.95;;;1.85;;
1949;SDS011;975;48.760;9.152;2022-11-20T06:00:53;4.15;;;2.05;;
1949;SDS011;975;48.760;9.152;2022-11-20T06:03:52;4.07;;;2.22;;
1949;SDS011;975;48.760;9.152;2022-11-20T06:06:55;2.85;;;2.05;;
1949;SDS011;975;48.760;9.152;2022-11-20T06:09:46;6.13;;;2.47;;
1949;SDS011;975;48.760;9.152;2022-11-20T06:12:45;7.75;;;3.42;;
1949;SDS011;975;48.760;9.152;2022-11-20T06:15:36;4.28;;;1.98;;
1949;SDS011;975;48.760;9.152;2022-11-20T06:18:28;3.65;;;2.10;;
1949;SDS011;975;48.760;9.152;2022-11-20T06:21:26;4.63;;;2.53;;
1949;SDS011;975;48.760;9.152;2022-11-20T06:27:48;3.88;;;2.22;;
1949;SDS011;975;48.760;9.152;2022-11-20T06:30:46;4.53;;;1.80;;
1949;SDS011;975;48.760;9.152;2022-11-20T06:33:35;3.28;;;1.95;;
1949;SDS011;975;48.760;9.152;2022-11-20T06:36:28;3.40;;;1.90;;
1949;SDS011;975;48.760;9.152;2022-11-20T06:39:20;3.90;;;1.80;;
1949;SDS011;975;48.760;9.152;2022-11-20T06:42:11;3.22;;;1.70;;
1949;SDS011;975;48.760;9.152;2022-11-20T06:45:14;2.95;;;1.55;;
1949;SDS011;975;48.760;9.152;2022-11-20T06:48:07;3.35;;;1.80;;
1949;SDS011;975;48.760;9.152;2022-11-20T06:51:05;2.55;;;1.80;;
1949;SDS011;975;48.760;9.152;2022-11-20T06:54:01;3.05;;;1.98;;
1949;SDS011;975;48.760;9.152;2022-11-20T06:56:52;2.22;;;1.60;;
1949;SDS011;975;48.760;9.152;2022-11-20T06:59:48;3.40;;;1.60;;
1949;SDS011;975;48.760;9.152;2022-11-20T07:02:44;4.35;;;1.80;;
1949;SDS011;975;48.760;9.152;2022-11-20T07:05:38;2.17;;;1.73;;
1949;SDS011;975;48.760;9.152;2022-11-20T07:08:29;3.35;;;1.77;;
1949;SDS011;975;48.760;9.152;2022-11-20T07:11:25;3.70;;;2.38;;
1949;SDS011;975;48.760;9.152;2022-11-20T07:14:16;4.68;;;1.80;;
1949;SDS011;975;48.760;9.152;2022-11-20T07:17:25;3.38;;;1.90;;
1949;SDS011;975;48.760;9.152;2022-11-20T07:20:24;5.68;;;1.95;;
1949;SDS011;975;48.760;9.152;2022-11-20T07:23:17;3.38;;;1.60;;
1949;SDS011;975;48.760;9.152;2022-11-20T07:26:10;3.30;;;2.00;;
1949;SDS011;975;48.760;9.152;2022-11-20T07:29:07;2.92;;;2.05;;
1949;SDS011;975;48.760;9.152;2022-11-20T07:32:01;4.00;;;1.98;;
1949;SDS011;975;48.760;9.152;2022-11-20T07:34:50;3.58;;;1.80;;
1949;SDS011;975;48.760;9.152;2022-11-20T07:37:49;2.42;;;1.52;;
1949;SDS011;975;48.760;9.152;2022-11-20T07:40:53;3.83;;;1.77;;
1949;SDS011;975;48.760;9.152;2022-11-20T07:43:53;4.00;;;1.92;;
1949;SDS011;975;48.760;9.152;2022-11-20T07:46:51;3.95;;;1.70;;
1949;SDS011;975;48.760;9.152;2022-11-20T07:49:45;2.47;;;1.58;;
1949;SDS011;975;48.760;9.152;2022-11-20T07:52:56;4.68;;;1.45;;
1949;SDS011;975;48.760;9.152;2022-11-20T07:55:57;3.22;;;1.27;;
1949;SDS011;975;48.760;9.152;2022-11-20T07:58:49;4.35;;;1.60;;
1949;SDS011;975;48.760;9.152;2022-11-20T08:01:38;4.22;;;2.33;;
1949;SDS011;975;48.760;9.152;2022-11-20T08:04:31;2.03;;;1.30;;
1949;SDS011;975;48.760;9.152;2022-11-20T08:07:29;2.95;;;1.60;;
1949;SDS011;975;48.760;9.152;2022-11-20T08:10:18;2.33;;;1.33;;
1949;SDS011;975;48.760;9.152;2022-11-20T08:13:06;1.80;;;1.35;;
1949;SDS011;975;48.760;9.152;2022-11-20T08:16:11;3.20;;;1.92;;
1949;SDS011;975;48.760;9.152;2022-11-20T08:19:00;1.98;;;1.25;;
1949;SDS011;975;48.760;9.152;2022-11-20T08:21:52;6.25;;;1.27;;
1949;SDS011;975;48.760;9.152;2022-11-20T08:24:41;2.22;;;1.70;;
1949;SDS011;975;48.760;9.152;2022-11-20T08:27:30;2.47;;;1.60;;
1949;SDS011;975;48.760;9.152;2022-11-20T08:30:18;2.72;;;1.38;;
1949;SDS011;975;48.760;9.152;2022-11-20T08:33:07;1.88;;;1.20;;
1949;SDS011;975;48.760;9.152;2022-11-20T08:35:57;2.40;;;1.25;;
1949;SDS011;975;48.760;9.152;2022-11-20T08:41:33;1.65;;;1.10;;
1949;SDS011;975;48.760;9.152;2022-11-20T08:44:23;1.67;;;1.10;;
1949;SDS011;975;48.760;9.152;2022-11-20T08:47:11;1.27;;;1.10;;
1949;SDS011;975;48.760;9.152;2022-11-20T08:50:00;1.90;;;0.77;;
1949;SDS011;975;48.760;9.152;2022-11-20T08:52:48;1.70;;;0.93;;
1949;SDS011;975;48.760;9.152;2022-11-20T08:55:36;1.30;;;0.90;;
1949;SDS011;975;48.760;9.152;2022-11-20T08:58:25;1.13;;;0.82;;
1949;SDS011;975;48.760;9.152;2022-11-20T09:01:14;3.22;;;1.42;;
1949;SDS011;975;48.760;9.152;2022-11-20T09:04:04;3.20;;;1.08;;
1949;SDS011;975;48.760;9.152;2022-11-20T09:07:04;1.73;;;1.05;;
1949;SDS011;975;48.760;9.152;2022-11-20T09:09:52;2.70;;;1.00;;
1949;SDS011;975;48.760;9.152;2022-11-20T09:12:40;2.67;;;1.00;;
1949;SDS011;975;48.760;9.152;2022-11-20T09:15:28;1.67;;;1.02;;
1949;SDS011;975;48.760;9.152;2022-11-20T09:18:17;2.47;;;0.90;;
1949;SDS011;975;48.760;9.152;2022-11-20T09:21:06;0.93;;;0.70;;
1949;SDS011;975;48.760;9.152;2022-11-20T09:23:54;2.15;;;1.00;;
1949;SDS011;975;48.760;9.152;2022-11-20T09:26:42;1.52;;;0.90;;
1949;SDS011;975;48.760;9.152;2022-11-20T09:29:30;1.80;;;1.00;;
1949;SDS011;975;48.760;9.152;2022-11-20T09:32:22;1.50;;;0.80;;
1949;SDS011;975;48.760;9.152;2022-11-20T09:35:11;2.40;;;0.82;;
1949;SDS011;975;48.760;9.152;2022-11-20T09:38:04;0.55;;;0.40;;
1949;SDS011;975;48.760;9.152;2022-11-20T09:40:55;1.15;;;0.55;;
1949;SDS011;975;48.760;9.152;2022-11-20T09:43:46;1.98;;;0.60;;
1949;SDS011;975;48.760;9.152;2022-11-20T09:46:39;0.60;;;0.50;;
1949;SDS011;975;48.760;9.152;2022-11-20T09:49:30;0.82;;;0.50;;
1949;SDS011;975;48.760;9.152;2022-11-20T09:52:24;1.85;;;0.60;;
1949;SDS011;975;48.760;9.152;2022-11-20T09:55:18;0.57;;;0.50;;
1949;SDS011;975;48.760;9.152;2022-11-20T09:58:07;0.43;;;0.30;;
1949;SDS011;975;48.760;9.152;2022-11-20T10:01:03;0.50;;;0.40;;
1949;SDS011;975;48.760;9.152;2022-11-20T10:03:56;1.25;;;0.50;;
1949;SDS011;975;48.760;9.152;2022-11-20T10:06:47;2.50;;;0.60;;
1949;SDS011;975;48.760;9.152;2022-11-20T10:09:39;0.95;;;0.50;;
1949;SDS011;975;48.760;9.152;2022-11-20T10:12:31;1.42;;;0.40;;
1949;SDS011;975;48.760;9.152;2022-11-20T10:15:24;0.50;;;0.50;;
1949;SDS011;975;48.760;9.152;2022-11-20T10:18:18;1.27;;;0.68;;
1949;SDS011;975;48.760;9.152;2022-11-20T10:21:11;1.65;;;0.47;;
1949;SDS011;975;48.760;9.152;2022-11-20T10:24:06;0.73;;;0.55;;
1949;SDS011;975;48.760;9.152;2022-11-20T10:27:06;0.50;;;0.50;;
1949;SDS011;975;48.760;9.152;2022-11-20T10:29:59;0.57;;;0.50;;
1949;SDS011;975;48.760;9.152;2022-11-20T10:32:48;1.10;;;0.80;;
1949;SDS011;975;48.760;9.152;2022-11-20T10:35:39;0.63;;;0.50;;
1949;SDS011;975;48.760;9.152;2022-11-20T10:38:29;1.35;;;0.50;;
1949;SDS011;975;48.760;9.152;2022-11-20T10:41:22;0.82;;;0.70;;
1949;SDS011;975;48.760;9.152;2022-11-20T10:44:16;1.13;;;0.43;;
1949;SDS011;975;48.760;9.152;2022-11-20T10:47:24;0.50;;;0.50;;
1949;SDS011;975;48.760;9.152;2022-11-20T10:50:14;0.73;;;0.50;;
1949;SDS011;975;48.760;9.152;2022-11-20T10:55:54;1.35;;;0.90;;
1949;SDS011;975;48.760;9.152;2022-11-20T10:58:52;2.30;;;1.02;;
1949;SDS011;975;48.760;9.152;2022-11-20T11:01:48;2.58;;;0.90;;
1949;SDS011;975;48.760;9.152;2022-11-20T11:04:38;1.48;;;0.88;;
1949;SDS011;975;48.760;9.152;2022-11-20T11:07:33;1.33;;;0.90;;
1949;SDS011;975;48.760;9.152;2022-11-20T11:10:24;1.42;;;1.00;;
1949;SDS011;975;48.760;9.152;2022-11-20T11:13:20;3.10;;;0.93;;
1949;SDS011;975;48.760;9.152;2022-11-20T11:16:16;2.25;;;1.30;;
1949;SDS011;975;48.760;9.152;2022-11-20T11:19:19;4.03;;;1.38;;
1949;SDS011;975;48.760;9.152;2022-11-20T11:22:09;3.20;;;1.10;;
1949;SDS011;975;48.760;9.152;2022-11-20T11:25:01;2.00;;;1.10;;
1949;SDS011;975;48.760;9.152;2022-11-20T11:27:52;1.58;;;0.77;;
1949;SDS011;975;48.760;9.152;2022-11-20T11:30:48;3.55;;;1.27;;
1949;SDS011;975;48.760;9.152;2022-11-20T11:33:36;2.22;;;0.90;;
1949;SDS011;975;48.760;9.152;2022-11-20T11:36:29;2.00;;;0.75;;
1949;SDS011;975;48.760;9.152;2022-11-20T11:39:18;1.63;;;0.90;;
1949;SDS011;975;48.760;9.152;2022-11-20T11:42:10;1.80;;;0.80;;
1949;SDS011;975;48.760;9.152;2022-11-20T11:45:11;2.47;;;1.10;;
1949;SDS011;975;48.760;9.152;2022-11-20T11:48:07;3.38;;;1.73;;
1949;SDS011;975;48.760;9.152;2022-11-20T11:50:56;2.97;;;1.05;;
1949;SDS011;975;48.760;9.152;2022-11-20T11:53:45;3.97;;;1.17;;
1949;SDS011;975;48.760;9.152;2022-11-20T11:56:33;3.10;;;1.00;;
1949;SDS011;975;48.760;9.152;2022-11-20T11:59:23;2.55;;;0.95;;
1949;SDS011;975;48.760;9.152;2022-11-20T12:02:15;1.60;;;0.90;;
1949;SDS011;975;48.760;9.152;2022-11-20T12:05:09;1.10;;;1.00;;
1949;SDS011;975;48.760;9.152;2022-11-20T12:07:59;1.35;;;1.08;;
1949;SDS011;975;48.760;9.152;2022-11-20T12:10:52;4.68;;;1.25;;
1949;SDS011;975;48.760;9.152;2022-11-20T12:13:44;1.50;;;0.90;;
1949;SDS011;975;48.760;9.152;2022-11-20T12:16:36;3.60;;;0.90;;
1949;SDS011;975;48.760;9.152;2022-11-20T12:19:24;1.63;;;0.77;;
1949;SDS011;975;48.760;9.152;2022-11-20T12:22:17;1.50;;;0.80;;
1949;SDS011;975;48.760;9.152;2022-11-20T12:25:07;1.67;;;0.52;;
1949;SDS011;975;48.760;9.152;2022-11-20T12:28:05;1.65;;;0.80;;
1949;SDS011;975;48.760;9.152;2022-11-20T12:31:02;3.38;;;0.90;;
1949;SDS011;975;48.760;9.152;2022-11-20T12:33:59;1.00;;;0.82;;
1949;SDS011;975;48.760;9.152;2022-11-20T12:36:52;2.03;;;0.63;;
1949;SDS011;975;48.760;9.152;2022-11-20T12:39:42;0.68;;;0.50;;
1949;SDS011;975;48.760;9.152;2022-11-20T12:42:44;1.95;;;0.70;;
1949;SDS011;975;48.760;9.152;2022-11-20T12:45:59;2.00;;;0.70;;
1949;SDS011;975;48.760;9.152;2022-11-20T12:48:52;1.35;;;0.55;;
1949;SDS011;975;48.760;9.152;2022-11-20T12:51:47;1.42;;;0.60;;
1949;SDS011;975;48.760;9.152;2022-11-20T12:54:52;2.17;;;0.60;;
1949;SDS011;975;48.760;9.152;2022-11-20T12:57:44;0.93;;;0.50;;
1949;SDS011;975;48.760;9.152;2022-11-20T13:00:38;1.40;;;0.70;;
1949;SDS011;975;48.760;9.152;2022-11-20T13:03:36;1.45;;;0.70;;
1949;SDS011;975;48.760;9.152;2022-11-20T13:06:25;3.47;;;0.47;;
1949;SDS011;975;48.760;9.152;2022-11-20T13:09:14;0.43;;;0.40;;
1949;SDS011;975;48.760;9.152;2022-11-20T13:12:05;4.85;;;0.55;;
1949;SDS011;975;48.760;9.152;2022-11-20T13:14:57;1.38;;;0.65;;
1949;SDS011;975;48.760;9.152;2022-11-20T13:17:50;1.35;;;0.60;;
1949;SDS011;975;48.760;9.152;2022-11-20T13:20:42;1.52;;;0.52;;
1949;SDS011;975;48.760;9.152;2022-11-20T13:23:30;2.28;;;0.45;;
1949;SDS011;975;48.760;9.152;2022-11-20T13:26:19;2.47;;;0.30;;
1949;SDS011;975;48.760;9.152;2022-11-20T13:29:08;1.83;;;0.38;;
1949;SDS011;975;48.760;9.152;2022-11-20T13:32:04;0.43;;;0.30;;
1949;SDS011;975;48.760;9.152;2022-11-20T13:34:52;4.55;;;0.60;;
1949;SDS011;975;48.760;9.152;2022-11-20T13:37:42;0.30;;;0.30;;
1949;SDS011;975;48.760;9.152;2022-11-20T13:40:30;1.60;;;0.60;;
1949;SDS011;975;48.760;9.152;2022-11-20T13:43:19;2.03;;;0.57;;
1949;SDS011;975;48.760;9.152;2022-11-20T13:46:08;3.42;;;0.50;;
1949;SDS011;975;48.760;9.152;2022-11-20T13:48:56;2.85;;;0.80;;
1949;SDS011;975;48.760;9.152;2022-11-20T13:51:44;0.63;;;0.47;;
1949;SDS011;975;48.760;9.152;2022-11-20T13:54:51;2.45;;;0.43;;
1949;SDS011;975;48.760;9.152;2022-11-20T13:57:45;1.85;;;0.60;;
1949;SDS011;975;48.760;9.152;2022-11-20T14:00:41;0.80;;;0.40;;
1949;SDS011;975;48.760;9.152;2022-11-20T14:03:31;1.00;;;0.47;;
1949;SDS011;975;48.760;9.152;2022-11-20T14:06:24;4.47;;;1.10;;
1949;SDS011;975;48.760;9.152;2022-11-20T14:09:13;4.65;;;0.90;;
1949;SDS011;975;48.760;9.152;2022-11-20T14:12:16;3.17;;;0.90;;
1949;SDS011;975;48.760;9.152;2022-11-20T14:15:05;0.95;;;0.43;;
1949;SDS011;975;48.760;9.152;2022-11-20T14:17:53;4.20;;;0.90;;
1949;SDS011;975;48.760;9.152;2022-11-20T14:20:41;3.28;;;0.80;;
1949;SDS011;975;48.760;9.152;2022-11-20T14:23:30;1.45;;;0.75;;
1949;SDS011;975;48.760;9.152;2022-11-20T14:26:18;1.17;;;0.60;;
1949;SDS011;975;48.760;9.152;2022-11-20T14:29:11;2.28;;;0.82;;
1949;SDS011;975;48.760;9.152;2022-11-20T14:31:59;1.98;;;0.80;;
1949;SDS011;975;48.760;9.152;2022-11-20T14:34:48;6.22;;;1.15;;
1949;SDS011;975;48.760;9.152;2022-11-20T14:37:37;2.03;;;0.70;;
1949;SDS011;975;48.760;9.152;2022-11-20T14:40:28;2.50;;;0.68;;
1949;SDS011;975;48.760;9.152;2022-11-20T14:43:17;2.45;;;0.70;;
1949;SDS011;975;48.760;9.152;2022-11-20T14:46:07;3.38;;;0.75;;
1949;SDS011;975;48.760;9.152;2022-11-20T14:48:56;1.52;;;0.75;;
1949;SDS011;975;48.760;9.152;2022-11-20T14:51:44;3.15;;;0.75;;
1949;SDS011;975;48.760;9.152;2022-11-20T14:54:32;1.92;;;0.80;;
1949;SDS011;975;48.760;9.152;2022-11-20T14:57:31;2.35;;;1.27;;
1949;SDS011;975;48.760;9.152;2022-11-20T15:00:19;2.28;;;1.20;;
1949;SDS011;975;48.760;9.152;2022-11-20T15:03:15;2.85;;;0.90;;
1949;SDS011;975;48.760;9.152;2022-11-20T15:06:03;4.25;;;0.90;;
1949;SDS011;975;48.760;9.152;2022-11-20T15:08:51;1.77;;;1.13;;
1949;SDS011;975;48.760;9.152;2022-11-20T15:11:39;3.28;;;0.98;;
1949;SDS011;975;48.760;9.152;2022-11-20T15:14:40;4.18;;;0.90;;
1949;SDS011;975;48.760;9.152;2022-11-20T15:17:28;3.15;;;1.08;;
1949;SDS011;975;48.760;9.152;2022-11-20T15:20:17;3.30;;;1.30;;
1949;SDS011;975;48.760;9.152;2022-11-20T15:23:08;3.72;;;1.05;;
1949;SDS011;975;48.760;9.152;2022-11-20T15:25:56;2.30;;;1.60;;
1949;SDS011;975;48.760;9.152;2022-11-20T15:28:44;4.00;;;1.33;;
1949;SDS011;975;48.760;9.152;2022-11-20T15:31:33;3.20;;;1.45;;
1949;SDS011;975;48.760;9.152;2022-11-20T15:34:21;2.03;;;1.05;;
1949;SDS011;975;48.760;9.152;2022-11-20T15:37:10;4.43;;;1.60;;
1949;SDS011;975;48.760;9.152;2022-11-20T15:39:58;2.50;;;1.13;;
1949;SDS011;975;48.760;9.152;2022-11-20T15:42:46;2.88;;;1.17;;
1949;SDS011;975;48.760;9.152;2022-11-20T15:45:48;2.70;;;1.30;;
1949;SDS011;975;48.760;9.152;2022-11-20T15:48:38;2.50;;;1.63;;
1949;SDS011;975;48.760;9.152;2022-11-20T15:51:27;2.45;;;1.20;;
1949;SDS011;975;48.760;9.152;2022-11-20T15:54:18;5.13;;;1.30;;
1949;SDS011;975;48.760;9.152;2022-11-20T15:57:07;2.25;;;1.30;;
1949;SDS011;975;48.760;9.152;2022-11-20T15:59:55;3.22;;;1.42;;
1949;SDS011;975;48.760;9.152;2022-11-20T16:02:43;2.90;;;1.10;;
1949;SDS011;975;48.760;9.152;2022-11-20T16:05:31;3.17;;;1.23;;
1949;SDS011;975;48.760;9.152;2022-11-20T16:08:19;2.20;;;1.17;;
1949;SDS011;975;48.760;9.152;2022-11-20T16:11:10;3.95;;;1.20;;
1949;SDS011;975;48.760;9.152;2022-11-20T16:13:58;2.25;;;1.33;;
1949;SDS011;975;48.760;9.152;2022-11-20T16:17:04;6.30;;;1.70;;
1949;SDS011;975;48.760;9.152;2022-11-20T16:19:55;2.35;;;1.40;;
1949;SDS011;975;48.760;9.152;2022-11-20T16:22:43;1.98;;;1.00;;
1949;SDS011;975;48.760;9.152;2022-11-20T16:25:30;2.75;;;1.10;;
1949;SDS011;975;48.760;9.152;2022-11-20T16:28:20;2.70;;;1.55;;
1949;SDS011;975;48.760;9.152;2022-11-20T16:31:08;4.18;;;1.65;;
1949;SDS011;975;48.760;9.152;2022-11-20T16:33:57;7.90;;;2.25;;
1949;SDS011;975;48.760;9.152;2022-11-20T16:36:45;7.25;;;2.72;;
1949;SDS011;975;48.760;9.152;2022-11-20T16:39:34;4.18;;;2.13;;
1949;SDS011;975;48.760;9.152;2022-11-20T16:42:22;5.88;;;2.65;;
1949;SDS011;975;48.760;9.152;2022-11-20T16:45:11;9.25;;;3.28;;
1949;SDS011;975;48.760;9.152;2022-11-20T16:47:59;9.75;;;3.35;;
1949;SDS011;975;48.760;9.152;2022-11-20T16:50:48;6.50;;;2.67;;
1949;SDS011;975;48.760;9.152;2022-11-20T16:53:36;5.05;;;2.75;;
1949;SDS011;975;48.760;9.152;2022-11-20T16:56:25;5.38;;;2.47;;
1949;SDS011;975;48.760;9.152;2022-11-20T16:59:13;7.32;;;2.45;;
1949;SDS011;975;48.760;9.152;2022-11-20T17:02:03;4.88;;;2.53;;
1949;SDS011;975;48.760;9.152;2022-11-20T17:04:51;5.45;;;2.95;;
1949;SDS011;975;48.760;9.152;2022-11-20T17:07:38;3.33;;;2.20;;
1949;SDS011;975;48.760;9.152;2022-11-20T17:10:26;9.25;;;2.60;;
1949;SDS011;975;48.760;9.152;2022-11-20T17:13:14;4.32;;;2.35;;
1949;SDS011;975;48.760;9.152;2022-11-20T17:16:03;5.95;;;2.30;;
1949;SDS011;975;48.760;9.152;2022-11-20T17:18:54;5.70;;;2.08;;
1949;SDS011;975;48.760;9.152;2022-11-20T17:21:42;2.78;;;1.70;;
1949;SDS011;975;48.760;9.152;2022-11-20T17:24:30;5.32;;;2.03;;
1949;SDS011;975;48.760;9.152;2022-11-20T17:27:18;4.15;;;2.20;;
1949;SDS011;975;48.760;9.152;2022-11-20T17:30:06;4.25;;;2.22;;
1949;SDS011;975;48.760;9.152;2022-11-20T17:32:54;6.70;;;2.30;;
1949;SDS011;975;48.760;9.152;2022-11-20T17:35:43;4.53;;;1.42;;
1949;SDS011;975;48.760;9.152;2022-11-20T17:38:31;3.92;;;1.73;;
1949;SDS011;975;48.760;9.152;2022-11-20T17:41:20;4.22;;;1.52;;
1949;SDS011;975;48.760;9.152;2022-11-20T17:44:08;5.05;;;1.40;;
1949;SDS011;975;48.760;9.152;2022-11-20T17:46:56;2.15;;;1.15;;
1949;SDS011;975;48.760;9.152;2022-11-20T17:49:44;3.28;;;1.30;;
1949;SDS011;975;48.760;9.152;2022-11-20T17:52:36;3.60;;;1.48;;
1949;SDS011;975;48.760;9.152;2022-11-20T17:55:29;2.58;;;1.35;;
1949;SDS011;975;48.760;9.152;2022-11-20T17:58:42;5.75;;;2.00;;
1949;SDS011;975;48.760;9.152;2022-11-20T18:01:33;2.72;;;1.52;;
1949;SDS011;975;48.760;9.152;2022-11-20T18:04:36;2.67;;;1.40;;
1949;SDS011;975;48.760;9.152;2022-11-20T18:07:31;3.05;;;1.70;;
1949;SDS011;975;48.760;9.152;2022-11-20T18:10:21;2.83;;;1.38;;
1949;SDS011;975;48.760;9.152;2022-11-20T18:13:17;5.10;;;1.67;;
1949;SDS011;975;48.760;9.152;2022-11-20T18:19:28;4.07;;;1.50;;
1949;SDS011;975;48.760;9.152;2022-11-20T18:22:24;3.08;;;1.30;;
1949;SDS011;975;48.760;9.152;2022-11-20T18:25:12;2.80;;;1.30;;
1949;SDS011;975;48.760;9.152;2022-11-20T18:28:01;2.13;;;1.30;;
1949;SDS011;975;48.760;9.152;2022-11-20T18:30:49;2.28;;;1.52;;
1949;SDS011;975;48.760;9.152;2022-11-20T18:33:37;4.97;;;2.50;;